createdAt,value
2017-07-09T00:01:42.154Z,17.50
2017-07-09T00:04:13.027Z,16.93
2017-07-09T00:06:41.878Z,16.10
2017-07-09T00:09:11.014Z,17.73
2017-07-09T00:11:39.976Z,18.00
2017-07-09T00:14:09.397Z,17.57
2017-07-09T00:16:38.937Z,18.17
2017-07-09T00:19:07.593Z,16.37
2017-07-09T00:21:36.281Z,17.27
2017-07-09T00:24:05.864Z,16.57
2017-07-09T00:26:34.472Z,17.23
2017-07-09T00:29:03.177Z,17.03
2017-07-09T00:31:32.065Z,17.47
2017-07-09T00:34:00.874Z,16.40
2017-07-09T00:36:29.424Z,16.30
2017-07-09T00:38:59.221Z,16.40
2017-07-09T00:41:28.061Z,16.87
2017-07-09T00:43:56.613Z,15.93
2017-07-09T00:46:26.302Z,15.37
2017-07-09T00:48:55.162Z,16.67
2017-07-09T00:51:23.697Z,16.73
2017-07-09T00:53:53.339Z,16.73
2017-07-09T00:56:21.894Z,16.53
2017-07-09T00:58:51.582Z,19.37
2017-07-09T01:01:20.445Z,17.37
2017-07-09T01:03:48.981Z,17.33
2017-07-09T01:06:17.158Z,15.20
2017-07-09T01:08:45.473Z,17.37
2017-07-09T01:11:14.472Z,16.53
2017-07-09T01:13:43.117Z,15.60
2017-07-09T01:16:11.917Z,18.17
2017-07-09T01:18:40.669Z,16.80
2017-07-09T01:21:09.173Z,15.47
2017-07-09T01:23:38.967Z,18.10
2017-07-09T01:26:07.705Z,16.07
2017-07-09T01:28:36.441Z,15.90
2017-07-09T01:31:05.337Z,16.20
2017-07-09T01:33:33.513Z,15.80
2017-07-09T01:36:02.092Z,16.80
2017-07-09T01:38:30.990Z,16.83
2017-07-09T01:41:00.493Z,16.67
2017-07-09T01:43:29.115Z,18.83
2017-07-09T01:45:57.830Z,16.40
2017-07-09T01:48:26.577Z,17.10
2017-07-09T01:50:55.818Z,17.13
2017-07-09T01:53:24.777Z,17.00
2017-07-09T01:55:54.325Z,17.10
2017-07-09T01:58:23.110Z,16.07
2017-07-09T02:00:52.149Z,17.00
2017-07-09T02:03:21.701Z,16.30
2017-07-09T02:05:50.252Z,16.27
2017-07-09T02:08:20.045Z,16.30
2017-07-09T02:10:48.994Z,17.20
2017-07-09T02:13:17.601Z,16.00
2017-07-09T02:15:46.421Z,16.60
2017-07-09T02:18:15.130Z,16.10
2017-07-09T02:20:43.932Z,16.50
2017-07-09T02:23:12.280Z,16.00
2017-07-09T02:25:40.877Z,17.90
2017-07-09T02:28:10.265Z,17.03
2017-07-09T02:30:38.973Z,16.70
2017-07-09T02:33:08.448Z,18.03
2017-07-09T02:35:37.115Z,17.57
2017-07-09T02:38:05.422Z,15.53
2017-07-09T02:40:33.925Z,15.30
2017-07-09T02:43:03.517Z,15.83
2017-07-09T02:45:32.222Z,15.60
2017-07-09T02:48:01.813Z,16.03
2017-07-09T02:50:30.070Z,15.73
2017-07-09T02:52:58.839Z,16.57
2017-07-09T02:55:27.402Z,13.90
2017-07-09T02:57:56.288Z,16.80
2017-07-09T03:00:25.141Z,16.33
2017-07-09T03:02:53.713Z,15.63
2017-07-09T03:05:22.338Z,15.43
2017-07-09T03:07:51.870Z,14.00
2017-07-09T03:10:20.529Z,16.27
2017-07-09T03:12:48.751Z,16.07
2017-07-09T03:15:17.597Z,16.37
2017-07-09T03:17:46.181Z,17.47
2017-07-09T03:20:15.819Z,17.33
2017-07-09T03:22:44.577Z,16.83
2017-07-09T03:25:14.205Z,17.47
2017-07-09T03:27:43.056Z,15.83
2017-07-09T03:30:12.053Z,16.17
2017-07-09T03:32:40.810Z,15.40
2017-07-09T03:35:09.449Z,16.37
2017-07-09T03:37:39.177Z,15.53
2017-07-09T03:40:07.879Z,16.20
2017-07-09T03:42:36.584Z,16.50
2017-07-09T03:45:04.940Z,15.53
2017-07-09T03:47:33.825Z,16.63
2017-07-09T03:50:02.676Z,14.77
2017-07-09T03:52:31.391Z,16.67
2017-07-09T03:55:00.118Z,15.23
2017-07-09T03:57:28.965Z,15.30
2017-07-09T03:59:58.574Z,15.97
2017-07-09T04:02:26.741Z,14.17
2017-07-09T04:04:56.158Z,16.00
2017-07-09T04:07:25.985Z,15.20
2017-07-09T04:09:54.789Z,16.20
2017-07-09T04:12:23.681Z,16.73
2017-07-09T04:14:52.282Z,14.83
2017-07-09T04:17:21.126Z,16.70
2017-07-09T04:19:50.765Z,17.63
2017-07-09T04:22:19.760Z,15.90
2017-07-09T04:24:48.314Z,16.03
2017-07-09T04:27:16.488Z,15.90
2017-07-09T04:29:46.045Z,14.53
2017-07-09T04:32:14.694Z,14.50
2017-07-09T04:34:43.449Z,15.83
2017-07-09T04:37:12.397Z,15.63
2017-07-09T04:39:41.035Z,14.33
2017-07-09T04:42:10.681Z,14.70
2017-07-09T04:44:39.679Z,14.83
2017-07-09T04:47:07.991Z,14.23
2017-07-09T04:49:36.156Z,14.87
2017-07-09T04:52:05.122Z,15.10
2017-07-09T04:54:33.304Z,15.10
2017-07-09T04:57:01.906Z,16.50
2017-07-09T04:59:30.761Z,16.80
2017-07-09T05:02:00.160Z,15.60
2017-07-09T05:04:29.462Z,14.60
2017-07-09T05:06:59.149Z,16.70
2017-07-09T05:09:27.992Z,14.20
2017-07-09T05:11:56.621Z,16.00
2017-07-09T05:14:25.038Z,13.57
2017-07-09T05:16:53.859Z,13.65
2017-07-09T05:19:22.230Z,14.20
2017-07-09T05:21:50.973Z,14.00
2017-07-09T05:24:19.193Z,13.90
2017-07-09T05:26:47.900Z,15.27
2017-07-09T05:29:16.670Z,14.63
2017-07-09T05:31:45.334Z,13.60
2017-07-09T05:34:14.132Z,14.50
2017-07-09T05:36:43.789Z,14.57
2017-07-09T05:39:12.622Z,13.32
2017-07-09T05:41:41.926Z,14.00
2017-07-09T05:44:10.232Z,14.13
2017-07-09T05:46:39.022Z,15.73
2017-07-09T05:49:07.911Z,14.20
2017-07-09T05:51:36.597Z,14.50
2017-07-09T05:54:05.357Z,13.82
2017-07-09T05:56:42.387Z,14.75
2017-07-09T05:59:11.029Z,15.98
2017-07-09T06:01:40.666Z,15.60
2017-07-09T06:04:09.813Z,14.98
2017-07-09T06:06:38.270Z,14.50
2017-07-09T06:09:06.901Z,16.17
2017-07-09T06:11:36.441Z,16.73
2017-07-09T06:14:05.002Z,18.12
2017-07-09T06:16:33.781Z,17.90
2017-07-09T06:19:02.176Z,18.77
2017-07-09T06:21:30.565Z,17.17
2017-07-09T06:23:59.336Z,18.08
2017-07-09T06:26:28.074Z,18.30
2017-07-09T06:28:56.838Z,20.08
2017-07-09T06:31:25.393Z,19.37
2017-07-09T06:33:55.185Z,17.87
2017-07-09T06:36:23.974Z,18.25
2017-07-09T06:38:52.553Z,18.83
2017-07-09T06:41:21.317Z,19.83
2017-07-09T06:43:49.967Z,19.23
2017-07-09T06:46:18.675Z,18.65
2017-07-09T06:48:47.716Z,19.20
2017-07-09T06:51:16.561Z,18.15
2017-07-09T06:53:45.118Z,17.87
2017-07-09T06:56:13.895Z,17.48
2017-07-09T06:58:43.646Z,17.92
2017-07-09T07:01:11.781Z,18.05
2017-07-09T07:03:41.297Z,16.92
2017-07-09T07:06:09.477Z,18.52
2017-07-09T07:08:38.340Z,16.37
2017-07-09T07:11:07.235Z,17.12
2017-07-09T07:13:36.077Z,16.02
2017-07-09T07:16:04.737Z,17.25
2017-07-09T07:18:34.460Z,16.37
2017-07-09T07:21:03.265Z,17.87
2017-07-09T07:23:31.626Z,18.60
2017-07-09T07:26:00.404Z,18.20
2017-07-09T07:28:29.713Z,17.37
2017-07-09T07:30:58.394Z,17.37
2017-07-09T07:33:27.829Z,15.35
2017-07-09T07:35:56.527Z,17.25
2017-07-09T07:38:25.189Z,15.20
2017-07-09T07:40:54.088Z,18.00
2017-07-09T07:43:23.034Z,15.43
2017-07-09T07:45:51.878Z,15.75
2017-07-09T07:48:20.269Z,18.12
2017-07-09T07:50:49.026Z,15.27
2017-07-09T07:53:17.805Z,16.77
2017-07-09T07:55:47.298Z,17.60
2017-07-09T07:58:15.469Z,16.45
2017-07-09T08:00:43.970Z,15.80
2017-07-09T08:03:13.801Z,17.02
2017-07-09T08:05:42.594Z,16.60
2017-07-09T08:08:11.445Z,17.83
2017-07-09T08:10:40.157Z,16.77
2017-07-09T08:13:08.682Z,16.73
2017-07-09T08:15:37.439Z,15.30
2017-07-09T08:18:06.422Z,16.40
2017-07-09T08:20:35.765Z,17.00
2017-07-09T08:23:04.313Z,17.13
2017-07-09T08:25:33.309Z,15.83
2017-07-09T08:28:02.108Z,15.53
2017-07-09T08:30:30.961Z,15.80
2017-07-09T08:33:00.097Z,16.05
2017-07-09T08:35:28.906Z,17.17
2017-07-09T08:37:57.502Z,15.40
2017-07-09T08:40:26.636Z,16.87
2017-07-09T08:42:54.809Z,15.80
2017-07-09T08:45:23.057Z,16.23
2017-07-09T08:47:51.545Z,18.60
2017-07-09T08:50:20.362Z,18.42
2017-07-09T08:52:49.886Z,19.13
2017-07-09T08:55:19.421Z,17.00
2017-07-09T08:57:48.145Z,18.70
2017-07-09T09:00:16.875Z,17.13
2017-07-09T09:02:45.865Z,16.60
2017-07-09T09:05:14.036Z,18.40
2017-07-09T09:07:43.874Z,17.60
2017-07-09T09:10:12.190Z,17.57
2017-07-09T09:12:40.759Z,18.80
2017-07-09T09:15:09.406Z,18.27
2017-07-09T09:17:38.402Z,18.03
2017-07-09T09:20:07.204Z,18.23
2017-07-09T09:22:36.062Z,19.10
2017-07-09T09:25:05.632Z,17.40
2017-07-09T09:27:34.011Z,15.77
2017-07-09T09:30:02.785Z,17.93
2017-07-09T09:32:31.473Z,19.03
2017-07-09T09:35:00.132Z,17.63
2017-07-09T09:37:28.288Z,17.83
2017-07-09T09:39:56.972Z,17.17
2017-07-09T09:42:25.577Z,16.43
2017-07-09T09:44:55.126Z,16.77
2017-07-09T09:47:24.022Z,16.20
2017-07-09T09:49:52.774Z,16.30
2017-07-09T09:52:21.431Z,16.67
2017-07-09T09:54:50.422Z,17.53
2017-07-09T09:57:19.265Z,16.23
2017-07-09T09:59:47.826Z,17.87
2017-07-09T10:02:16.514Z,17.57
2017-07-09T10:04:45.297Z,15.70
2017-07-09T10:07:14.001Z,17.70
2017-07-09T10:09:42.997Z,18.40
2017-07-09T10:12:11.849Z,17.50
2017-07-09T10:14:40.607Z,17.20
2017-07-09T10:17:09.685Z,17.50
2017-07-09T10:19:38.245Z,18.17
2017-07-09T10:22:07.073Z,18.10
2017-07-09T10:24:36.025Z,18.20
2017-07-09T10:27:05.405Z,17.20
2017-07-09T10:29:34.163Z,16.83
2017-07-09T10:32:03.014Z,17.13
2017-07-09T10:34:31.921Z,18.63
2017-07-09T10:37:00.774Z,16.70
2017-07-09T10:39:29.707Z,16.40
2017-07-09T10:41:58.709Z,15.50
2017-07-09T10:44:27.601Z,16.23
2017-07-09T10:46:56.466Z,19.00
2017-07-09T10:49:25.053Z,18.33
2017-07-09T10:51:53.841Z,17.60
2017-07-09T10:54:22.144Z,17.50
2017-07-09T10:56:51.041Z,18.50
2017-07-09T10:59:19.761Z,17.07
2017-07-09T11:01:48.577Z,16.43
2017-07-09T11:04:18.039Z,17.97
2017-07-09T11:06:46.722Z,18.70
2017-07-09T11:09:14.978Z,16.93
2017-07-09T11:11:43.878Z,17.97
2017-07-09T11:14:12.874Z,19.80
2017-07-09T11:16:41.865Z,18.27
2017-07-09T11:19:10.860Z,19.67
2017-07-09T11:21:39.758Z,19.17
2017-07-09T11:24:08.542Z,17.87
2017-07-09T11:26:37.248Z,20.30
2017-07-09T11:29:05.993Z,18.90
2017-07-09T11:31:35.093Z,19.20
2017-07-09T11:34:03.998Z,19.70
2017-07-09T11:36:32.849Z,17.60
2017-07-09T11:39:01.157Z,19.70
2017-07-09T11:41:29.837Z,20.77
2017-07-09T11:43:59.197Z,19.50
2017-07-09T11:46:27.929Z,20.00
2017-07-09T11:48:56.722Z,21.40
2017-07-09T11:51:25.526Z,20.27
2017-07-09T11:53:53.831Z,21.67
2017-07-09T11:56:22.621Z,18.50
2017-07-09T11:58:51.270Z,19.50
2017-07-09T12:01:20.274Z,19.77
2017-07-09T12:03:49.065Z,19.07
2017-07-09T12:06:17.868Z,19.10
2017-07-09T12:08:46.910Z,19.77
2017-07-09T12:11:15.082Z,18.63
2017-07-09T12:13:43.822Z,18.20
2017-07-09T12:16:12.125Z,19.13
2017-07-09T12:18:40.857Z,18.50
2017-07-09T12:21:10.549Z,18.40
2017-07-09T12:23:38.794Z,20.00
2017-07-09T12:26:06.989Z,18.03
2017-07-09T12:28:35.526Z,18.40
2017-07-09T12:31:04.346Z,20.20
2017-07-09T12:33:32.782Z,18.90
2017-07-09T12:36:02.299Z,19.07
2017-07-09T12:38:31.432Z,19.47
2017-07-09T12:41:00.073Z,20.03
2017-07-09T12:43:29.477Z,19.20
2017-07-09T12:45:59.114Z,17.93
2017-07-09T12:48:27.814Z,21.03
2017-07-09T12:50:56.666Z,17.10
2017-07-09T12:53:25.368Z,18.07
2017-07-09T12:55:54.220Z,19.20
2017-07-09T12:58:23.114Z,18.40
2017-07-09T13:00:51.825Z,18.37
2017-07-09T13:03:21.346Z,20.67
2017-07-09T13:05:50.150Z,19.00
2017-07-09T13:08:19.338Z,19.30
2017-07-09T13:10:47.565Z,19.50
2017-07-09T13:13:16.293Z,19.90
2017-07-09T13:15:45.180Z,17.23
2017-07-09T13:18:13.940Z,18.77
2017-07-09T13:20:42.787Z,18.50
2017-07-09T13:23:11.880Z,17.77
2017-07-09T13:25:40.831Z,18.30
2017-07-09T13:28:09.330Z,17.93
2017-07-09T13:30:39.017Z,19.90
2017-07-09T13:33:07.910Z,19.50
2017-07-09T13:35:36.905Z,18.73
2017-07-09T13:38:05.848Z,17.67
2017-07-09T13:40:34.841Z,16.80
2017-07-09T13:43:03.752Z,18.10
2017-07-09T13:45:32.597Z,18.10
2017-07-09T13:48:02.126Z,18.40
2017-07-09T13:50:30.973Z,17.57
2017-07-09T13:52:59.786Z,18.20
2017-07-09T13:55:28.314Z,16.83
2017-07-09T13:57:57.157Z,17.33
2017-07-09T14:00:26.765Z,18.33
2017-07-09T14:02:56.358Z,17.87
2017-07-09T14:05:25.198Z,18.60
2017-07-09T14:07:53.957Z,17.43
2017-07-09T14:10:23.541Z,18.20
2017-07-09T14:12:52.386Z,17.10
2017-07-09T14:15:21.077Z,19.20
2017-07-09T14:17:49.282Z,18.47
2017-07-09T14:20:18.189Z,18.60
2017-07-09T14:35:32.609Z,19.23
2017-07-09T14:38:01.449Z,17.83
2017-07-09T14:40:30.852Z,19.37
2017-07-09T14:43:00.685Z,17.03
2017-07-09T14:45:29.533Z,16.13
2017-07-09T14:47:57.693Z,16.53
2017-07-09T14:50:26.529Z,17.47
2017-07-09T14:52:55.225Z,17.73
2017-07-09T14:55:23.924Z,17.57
2017-07-09T14:57:52.730Z,16.20
2017-07-09T15:00:21.417Z,17.97
2017-07-09T15:02:50.165Z,19.00
2017-07-09T15:05:19.774Z,17.50
2017-07-09T15:07:49.501Z,18.83
2017-07-09T15:10:18.354Z,17.40
2017-07-09T15:12:47.345Z,17.30
2017-07-09T15:15:16.115Z,18.47
2017-07-09T15:17:44.923Z,17.83
2017-07-09T15:20:13.270Z,18.90
2017-07-09T15:22:41.485Z,19.10
2017-07-09T15:25:10.029Z,18.70
2017-07-09T15:27:38.781Z,19.17
2017-07-09T15:30:07.581Z,17.70
2017-07-09T15:32:36.386Z,19.30
2017-07-09T15:35:05.529Z,18.60
2017-07-09T15:37:34.421Z,18.57
2017-07-09T15:40:03.520Z,18.73
2017-07-09T15:42:32.513Z,17.50
2017-07-09T15:45:00.677Z,18.63
2017-07-09T15:47:29.402Z,17.70
2017-07-09T15:49:58.938Z,18.10
2017-07-09T15:52:27.593Z,19.13
2017-07-09T15:54:56.998Z,18.13
2017-07-09T15:57:26.829Z,18.60
2017-07-09T15:59:55.634Z,17.07
2017-07-09T16:02:24.520Z,18.27
2017-07-09T16:04:53.214Z,19.07
2017-07-09T16:07:21.813Z,18.30
2017-07-09T16:09:49.970Z,18.30
2017-07-09T16:12:18.657Z,16.73
2017-07-09T16:14:47.261Z,16.90
2017-07-09T16:17:16.007Z,17.27
2017-07-09T16:19:44.913Z,18.00
2017-07-09T16:22:13.764Z,17.03
2017-07-09T16:24:42.014Z,17.97
2017-07-09T16:27:10.853Z,18.17
2017-07-09T16:29:40.158Z,17.87
2017-07-09T16:32:08.741Z,20.20
2017-07-09T16:34:38.173Z,17.37
2017-07-09T16:37:06.934Z,16.47
2017-07-09T16:39:35.637Z,17.70
2017-07-09T16:42:04.634Z,18.70
2017-07-09T16:44:32.881Z,17.77
2017-07-09T16:47:02.582Z,18.20
2017-07-09T16:49:31.577Z,17.03
2017-07-09T16:52:00.081Z,17.83
2017-07-09T16:54:29.617Z,17.77
2017-07-09T16:56:58.613Z,17.00
2017-07-09T16:59:26.862Z,16.83
2017-07-09T17:01:56.166Z,17.07
2017-07-09T17:04:25.001Z,18.23
2017-07-09T17:06:53.737Z,18.23
2017-07-09T17:09:23.045Z,18.20
2017-07-09T17:11:52.874Z,18.43
2017-07-09T17:14:21.781Z,19.07
2017-07-09T17:16:50.669Z,18.13
2017-07-09T17:19:19.362Z,18.27
2017-07-09T17:21:47.958Z,17.40
2017-07-09T17:24:16.085Z,16.23
2017-07-09T17:26:45.697Z,16.60
2017-07-09T17:29:13.825Z,17.30
2017-07-09T17:31:42.561Z,17.37
2017-07-09T17:34:12.000Z,16.63
2017-07-09T17:36:40.653Z,17.40
2017-07-09T17:39:08.877Z,17.07
2017-07-09T17:41:37.622Z,19.83
2017-07-09T17:44:05.969Z,17.03
2017-07-09T17:46:34.702Z,17.87
2017-07-09T17:49:03.653Z,16.50
2017-07-09T17:51:31.817Z,17.70
2017-07-09T17:54:00.441Z,18.57
2017-07-09T17:56:29.884Z,17.93
2017-07-09T17:58:58.570Z,18.30
2017-07-09T18:01:27.437Z,17.97
2017-07-09T18:03:56.422Z,19.00
2017-07-09T18:06:25.181Z,16.90
2017-07-09T18:08:54.074Z,17.80
2017-07-09T18:11:23.076Z,18.00
2017-07-09T18:13:52.505Z,17.17
2017-07-09T18:16:21.301Z,18.37
2017-07-09T18:18:50.501Z,20.30
2017-07-09T18:21:19.393Z,19.20
2017-07-09T18:23:48.345Z,22.10
2017-07-09T18:26:16.681Z,18.97
2017-07-09T18:28:45.342Z,20.73
2017-07-09T18:31:14.041Z,19.40
2017-07-09T18:33:43.037Z,19.77
2017-07-09T18:36:11.208Z,18.83
2017-07-09T18:38:39.788Z,17.97
2017-07-09T18:41:08.163Z,19.20
2017-07-09T18:43:36.718Z,19.00
2017-07-09T18:46:05.580Z,19.30
2017-07-09T18:48:33.885Z,18.97
2017-07-09T18:51:02.733Z,19.80
2017-07-09T18:53:31.349Z,18.60
2017-07-09T19:09:01.704Z,17.10
2017-07-09T19:11:30.949Z,18.23
2017-07-09T19:13:59.698Z,18.47
2017-07-09T19:16:29.305Z,17.63
2017-07-09T19:18:58.933Z,19.23
2017-07-09T19:21:28.528Z,19.13
2017-07-09T19:23:57.528Z,19.00
2017-07-09T19:26:26.215Z,19.87
2017-07-09T19:28:54.585Z,20.57
2017-07-09T19:31:24.304Z,18.90
2017-07-09T19:33:53.110Z,20.43
2017-07-09T19:36:22.100Z,17.00
2017-07-09T19:38:50.445Z,18.37
2017-07-09T19:41:19.053Z,19.87
2017-07-09T19:43:47.650Z,18.80
2017-07-09T19:46:16.705Z,20.77
2017-07-09T19:48:45.447Z,17.53
2017-07-09T19:51:14.006Z,17.30
2017-07-09T19:53:42.345Z,18.07
2017-07-09T19:56:11.096Z,18.47
2017-07-09T19:58:39.753Z,16.90
2017-07-09T20:01:09.485Z,18.17
2017-07-09T20:03:38.541Z,17.93
2017-07-09T20:06:07.433Z,18.03
2017-07-09T20:08:35.781Z,19.97
2017-07-09T20:11:04.421Z,18.67
2017-07-09T20:13:33.820Z,20.03
2017-07-09T20:16:03.653Z,19.03
2017-07-09T20:18:31.833Z,19.00
2017-07-09T20:21:00.652Z,18.40
2017-07-09T20:23:29.616Z,20.50
2017-07-09T20:25:58.286Z,18.53
2017-07-09T20:28:27.590Z,18.27
2017-07-09T20:30:57.097Z,19.50
2017-07-09T20:33:25.779Z,19.00
2017-07-09T20:35:55.318Z,19.20
2017-07-09T20:38:23.805Z,18.83
2017-07-09T20:40:52.565Z,18.70
2017-07-09T20:43:21.249Z,17.40
2017-07-09T20:45:50.153Z,20.50
2017-07-09T20:48:19.005Z,18.73
2017-07-09T20:50:47.849Z,18.53
2017-07-09T20:53:16.846Z,20.43
2017-07-09T20:55:45.406Z,19.17
2017-07-09T20:58:14.194Z,18.70
2017-07-09T21:00:43.083Z,18.70
2017-07-09T21:03:12.426Z,19.57
2017-07-09T21:05:41.074Z,17.97
2017-07-09T21:08:09.973Z,19.00
2017-07-09T21:10:38.873Z,16.20
2017-07-09T21:13:07.825Z,17.93
2017-07-09T21:15:36.390Z,18.37
2017-07-09T21:18:04.570Z,17.70
2017-07-09T21:20:33.478Z,16.70
2017-07-09T21:23:02.186Z,18.17
2017-07-09T21:25:31.769Z,18.60
2017-07-09T21:28:00.026Z,16.40
2017-07-09T21:30:28.909Z,18.03
2017-07-09T21:32:57.657Z,17.70
2017-07-09T21:35:26.997Z,16.37
2017-07-09T21:37:55.894Z,16.90
2017-07-09T21:40:24.537Z,16.57
2017-07-09T21:42:53.838Z,17.90
2017-07-09T21:45:22.155Z,16.87
2017-07-09T21:47:50.697Z,16.00
2017-07-09T21:50:20.426Z,16.80
2017-07-09T21:52:49.382Z,16.80
2017-07-09T21:55:17.886Z,18.97
2017-07-09T21:57:47.573Z,16.83
2017-07-09T22:00:16.571Z,17.13
2017-07-09T22:02:45.309Z,16.90
2017-07-09T22:05:14.029Z,17.50
2017-07-09T22:07:42.701Z,15.77
2017-07-09T22:10:11.453Z,17.27
2017-07-09T22:12:40.109Z,16.13
2017-07-09T22:15:08.514Z,17.03
2017-07-09T22:17:38.149Z,16.23
2017-07-09T22:20:06.990Z,15.47
2017-07-09T22:22:35.681Z,16.63
2017-07-09T22:25:04.392Z,17.80
2017-07-09T22:27:32.990Z,16.97
2017-07-09T22:30:01.946Z,15.70
2017-07-09T22:32:30.834Z,16.57
2017-07-09T22:34:59.678Z,16.40
2017-07-09T22:37:28.442Z,15.23
2017-07-09T22:39:57.070Z,17.30
2017-07-09T22:42:25.718Z,18.33
2017-07-09T22:44:54.519Z,17.50
2017-07-09T22:47:23.372Z,16.60
2017-07-09T22:49:51.949Z,17.20
2017-07-09T22:52:20.857Z,15.73
2017-07-09T22:54:50.453Z,15.80
2017-07-09T22:57:18.966Z,16.50
2017-07-09T22:59:47.695Z,15.33
2017-07-09T23:02:16.338Z,16.90
2017-07-09T23:04:45.142Z,16.23
2017-07-09T23:07:14.240Z,15.20
2017-07-09T23:09:43.128Z,14.70
2017-07-09T23:12:11.334Z,15.57
2017-07-09T23:14:40.266Z,16.97
2017-07-09T23:17:08.870Z,16.40
2017-07-09T23:19:38.478Z,15.80
2017-07-09T23:22:08.205Z,15.50
2017-07-09T23:24:36.924Z,15.47
2017-07-09T23:27:05.564Z,14.53
2017-07-09T23:29:33.817Z,14.73
2017-07-09T23:32:02.562Z,15.43
2017-07-09T23:34:31.453Z,18.83
2017-07-09T23:37:00.203Z,17.10
2017-07-09T23:39:29.694Z,17.13
2017-07-09T23:41:58.588Z,17.97
2017-07-09T23:44:27.225Z,19.17
2017-07-09T23:46:55.981Z,19.60
2017-07-09T23:49:24.269Z,19.07
2017-07-09T23:51:52.947Z,18.83
2017-07-09T23:54:22.599Z,16.63
2017-07-09T23:56:50.810Z,18.90
2017-07-09T23:59:19.609Z,18.20
